KECS

Details ICAO KECS
Name MONDELL FLD
Region United States
Timezone America/Denver (UTC-6.0)
Plans Departing 3
Arriving 1
Stats Elevation 4,174 ft / 1,272 m (AMSL)
Location 43.885520° -104.318866°
Runways 3
Magnetic Variation 8.134° E
Sunrise 2018-05-23 11:25:17 UTC / 2018-05-23 05:25:17 Local
Sunset 2018-05-24 02:25:40 UTC / 2018-05-23 20:25:40 Local
Advertisement - Login to hide

Runways

ID Width Length Bearing (true) Bearing (mag) Surface Threshold Offset Overrun Length
05 49 ft / 15 m 2,268 ft / 691 m 59.82° 51.69° Grass 0 ft / 0 m 0 ft / 0 m
13 75 ft / 23 m 5,289 ft / 1,612 m 144.00° 135.87° Concrete 486 ft / 148 m 0 ft / 0 m
17 39 ft / 12 m 2,643 ft / 806 m 180.02° 171.89° Grass 0 ft / 0 m 0 ft / 0 m
23 49 ft / 15 m 2,268 ft / 691 m 239.83° 231.70° Grass 0 ft / 0 m 0 ft / 0 m
31 75 ft / 23 m 5,289 ft / 1,612 m 324.00° 315.87° Concrete 0 ft / 0 m 0 ft / 0 m
35 39 ft / 12 m 2,643 ft / 806 m 0.02° 351.89° Grass 0 ft / 0 m 0 ft / 0 m

Map

Weather


0- 5 10 15 20 25 30 35+ Temperature / ° C

Clouds and Precipitation
Forecast for 2018-05-23 18:00 UTC. Updated 3 hours ago

Ground ~20,000 ft ~40,000 ft Winds

METAR

KECS 232035Z AUTO 15003KT 10SM CLR 21/10 A2995 RMK AO2

TAF

Not found

Frequencies

Recorded 118.00 MHz AWOS 3
Unicom 122.80 MHz CTAF/UNICOM
Warning: Do not use this data for real-world aviation or navigation. No guarantee of current accuracy is given.